sensor_id;sensor_type;location;lat;lon;timestamp;temperature;humidity
66576;SHT31;53428;47.686;16.584;2022-08-02T00:00:09;20.87;71.81
66576;SHT31;53428;47.686;16.584;2022-08-02T00:05:11;21.07;71.02
66576;SHT31;53428;47.686;16.584;2022-08-02T00:10:11;21.24;70.41
66576;SHT31;53428;47.686;16.584;2022-08-02T00:15:11;21.33;70.19
66576;SHT31;53428;47.686;16.584;2022-08-02T00:20:11;21.34;70.17
66576;SHT31;53428;47.686;16.584;2022-08-02T00:25:10;21.38;70.04
66576;SHT31;53428;47.686;16.584;2022-08-02T00:30:10;21.52;69.86
66576;SHT31;53428;47.686;16.584;2022-08-02T00:35:09;21.59;69.74
66576;SHT31;53428;47.686;16.584;2022-08-02T00:40:09;21.55;69.81
66576;SHT31;53428;47.686;16.584;2022-08-02T00:45:09;21.59;69.83
66576;SHT31;53428;47.686;16.584;2022-08-02T00:50:08;21.65;69.73
66576;SHT31;53428;47.686;16.584;2022-08-02T00:55:08;21.64;69.78
66576;SHT31;53428;47.686;16.584;2022-08-02T01:00:08;21.55;70.13
66576;SHT31;53428;47.686;16.584;2022-08-02T01:05:08;21.43;70.54
66576;SHT31;53428;47.686;16.584;2022-08-02T01:10:09;21.40;70.65
66576;SHT31;53428;47.686;16.584;2022-08-02T01:15:09;21.62;70.02
66576;SHT31;53428;47.686;16.584;2022-08-02T01:26:17;21.41;70.85
66576;SHT31;53428;47.686;16.584;2022-08-02T01:31:28;21.45;71.05
66576;SHT31;53428;47.686;16.584;2022-08-02T01:36:34;21.37;71.64
66576;SHT31;53428;47.686;16.584;2022-08-02T01:41:34;21.27;71.94
66576;SHT31;53428;47.686;16.584;2022-08-02T01:46:37;21.06;72.29
66576;SHT31;53428;47.686;16.584;2022-08-02T01:51:39;21.30;71.18
66576;SHT31;53428;47.686;16.584;2022-08-02T01:57:01;21.47;70.83
66576;SHT31;53428;47.686;16.584;2022-08-02T02:02:03;21.55;70.83
66576;SHT31;53428;47.686;16.584;2022-08-02T02:07:06;21.40;71.74
66576;SHT31;53428;47.686;16.584;2022-08-02T02:12:06;21.37;72.35
66576;SHT31;53428;47.686;16.584;2022-08-02T02:17:07;21.33;73.59
66576;SHT31;53428;47.686;16.584;2022-08-02T02:22:06;21.06;74.80
66576;SHT31;53428;47.686;16.584;2022-08-02T02:27:08;21.03;75.79
66576;SHT31;53428;47.686;16.584;2022-08-02T02:32:11;20.89;76.67
66576;SHT31;53428;47.686;16.584;2022-08-02T02:37:13;20.76;77.39
66576;SHT31;53428;47.686;16.584;2022-08-02T02:42:15;20.65;77.47
66576;SHT31;53428;47.686;16.584;2022-08-02T02:47:17;20.79;76.75
66576;SHT31;53428;47.686;16.584;2022-08-02T02:52:17;20.66;77.23
66576;SHT31;53428;47.686;16.584;2022-08-02T02:57:17;20.66;77.43
66576;SHT31;53428;47.686;16.584;2022-08-02T03:02:18;20.64;77.60
66576;SHT31;53428;47.686;16.584;2022-08-02T03:07:18;20.72;77.56
66576;SHT31;53428;47.686;16.584;2022-08-02T03:12:17;20.71;77.67
66576;SHT31;53428;47.686;16.584;2022-08-02T03:17:17;20.71;77.62
66576;SHT31;53428;47.686;16.584;2022-08-02T03:22:16;20.64;77.69
66576;SHT31;53428;47.686;16.584;2022-08-02T03:27:15;20.39;79.06
66576;SHT31;53428;47.686;16.584;2022-08-02T03:32:15;20.27;79.67
66576;SHT31;53428;47.686;16.584;2022-08-02T03:37:14;20.24;79.66
66576;SHT31;53428;47.686;16.584;2022-08-02T03:42:14;20.34;79.28
66576;SHT31;53428;47.686;16.584;2022-08-02T03:47:14;20.34;79.28
66576;SHT31;53428;47.686;16.584;2022-08-02T03:52:14;20.45;78.74
66576;SHT31;53428;47.686;16.584;2022-08-02T03:57:14;20.48;78.97
66576;SHT31;53428;47.686;16.584;2022-08-02T04:02:13;20.62;78.10
66576;SHT31;53428;47.686;16.584;2022-08-02T04:07:12;20.80;76.57
66576;SHT31;53428;47.686;16.584;2022-08-02T04:12:12;20.86;76.31
66576;SHT31;53428;47.686;16.584;2022-08-02T04:17:12;20.93;75.95
66576;SHT31;53428;47.686;16.584;2022-08-02T04:22:20;20.97;75.33
66576;SHT31;53428;47.686;16.584;2022-08-02T04:27:21;21.00;75.12
66576;SHT31;53428;47.686;16.584;2022-08-02T04:32:21;21.03;75.52
66576;SHT31;53428;47.686;16.584;2022-08-02T04:37:21;21.02;75.91
66576;SHT31;53428;47.686;16.584;2022-08-02T04:42:25;21.06;75.84
66576;SHT31;53428;47.686;16.584;2022-08-02T04:47:24;21.07;75.10
66576;SHT31;53428;47.686;16.584;2022-08-02T04:52:25;21.22;73.68
66576;SHT31;53428;47.686;16.584;2022-08-02T04:57:25;21.50;72.18
66576;SHT31;53428;47.686;16.584;2022-08-02T05:02:43;21.66;69.91
66576;SHT31;53428;47.686;16.584;2022-08-02T05:07:42;21.78;70.04
66576;SHT31;53428;47.686;16.584;2022-08-02T05:12:41;21.85;69.45
66576;SHT31;53428;47.686;16.584;2022-08-02T05:17:41;21.93;70.07
66576;SHT31;53428;47.686;16.584;2022-08-02T05:22:41;22.05;69.49
66576;SHT31;53428;47.686;16.584;2022-08-02T05:27:40;22.12;69.52
66576;SHT31;53428;47.686;16.584;2022-08-02T05:32:44;22.24;69.33
66576;SHT31;53428;47.686;16.584;2022-08-02T05:37:45;22.27;68.84
66576;SHT31;53428;47.686;16.584;2022-08-02T05:42:45;22.58;68.18
66576;SHT31;53428;47.686;16.584;2022-08-02T05:47:44;22.75;67.84
66576;SHT31;53428;47.686;16.584;2022-08-02T05:58:05;22.88;67.40
66576;SHT31;53428;47.686;16.584;2022-08-02T06:03:25;23.04;66.89
66576;SHT31;53428;47.686;16.584;2022-08-02T06:08:44;23.23;66.32
66576;SHT31;53428;47.686;16.584;2022-08-02T06:13:44;23.32;66.01
66576;SHT31;53428;47.686;16.584;2022-08-02T06:18:44;23.41;66.05
66576;SHT31;53428;47.686;16.584;2022-08-02T06:23:43;23.27;66.46
66576;SHT31;53428;47.686;16.584;2022-08-02T06:28:45;23.20;66.61
66576;SHT31;53428;47.686;16.584;2022-08-02T06:33:46;23.62;65.96
66576;SHT31;53428;47.686;16.584;2022-08-02T06:39:00;23.49;66.38
66576;SHT31;53428;47.686;16.584;2022-08-02T06:44:01;23.93;65.02
66576;SHT31;53428;47.686;16.584;2022-08-02T06:49:02;24.08;64.72
66576;SHT31;53428;47.686;16.584;2022-08-02T06:54:02;24.21;64.81
66576;SHT31;53428;47.686;16.584;2022-08-02T06:59:04;24.47;64.01
66576;SHT31;53428;47.686;16.584;2022-08-02T07:04:03;24.69;63.56
66576;SHT31;53428;47.686;16.584;2022-08-02T07:09:03;24.79;63.32
66576;SHT31;53428;47.686;16.584;2022-08-02T07:14:02;24.96;63.22
66576;SHT31;53428;47.686;16.584;2022-08-02T07:19:02;25.23;62.54
66576;SHT31;53428;47.686;16.584;2022-08-02T07:24:01;24.96;63.10
66576;SHT31;53428;47.686;16.584;2022-08-02T07:29:01;24.22;64.64
66576;SHT31;53428;47.686;16.584;2022-08-02T07:34:00;24.94;63.05
66576;SHT31;53428;47.686;16.584;2022-08-02T07:39:00;24.97;62.42
66576;SHT31;53428;47.686;16.584;2022-08-02T07:43:59;24.97;62.55
66576;SHT31;53428;47.686;16.584;2022-08-02T07:48:59;24.73;62.49
66576;SHT31;53428;47.686;16.584;2022-08-02T07:53:58;24.59;63.36
66576;SHT31;53428;47.686;16.584;2022-08-02T07:58:57;24.51;63.31
66576;SHT31;53428;47.686;16.584;2022-08-02T08:03:56;24.21;64.10
66576;SHT31;53428;47.686;16.584;2022-08-02T08:08:57;24.04;65.01
66576;SHT31;53428;47.686;16.584;2022-08-02T08:13:56;24.28;64.65
66576;SHT31;53428;47.686;16.584;2022-08-02T08:18:55;24.29;64.72
66576;SHT31;53428;47.686;16.584;2022-08-02T08:23:55;24.43;64.36
66576;SHT31;53428;47.686;16.584;2022-08-02T08:28:58;24.65;63.15
66576;SHT31;53428;47.686;16.584;2022-08-02T08:33:59;24.45;63.47
66576;SHT31;53428;47.686;16.584;2022-08-02T08:38:58;24.45;63.67
66576;SHT31;53428;47.686;16.584;2022-08-02T08:43:58;24.60;63.87
66576;SHT31;53428;47.686;16.584;2022-08-02T08:49:00;25.07;62.58
66576;SHT31;53428;47.686;16.584;2022-08-02T08:54:02;25.08;62.39
66576;SHT31;53428;47.686;16.584;2022-08-02T08:59:03;24.94;62.79
66576;SHT31;53428;47.686;16.584;2022-08-02T09:04:02;24.98;62.61
66576;SHT31;53428;47.686;16.584;2022-08-02T09:09:02;24.60;63.90
66576;SHT31;53428;47.686;16.584;2022-08-02T09:14:02;24.86;63.59
66576;SHT31;53428;47.686;16.584;2022-08-02T09:19:25;24.62;64.08
66576;SHT31;53428;47.686;16.584;2022-08-02T09:24:24;25.02;63.09
66576;SHT31;53428;47.686;16.584;2022-08-02T09:29:25;25.20;62.70
66576;SHT31;53428;47.686;16.584;2022-08-02T09:34:46;25.10;62.32
66576;SHT31;53428;47.686;16.584;2022-08-02T09:39:45;25.33;61.72
66576;SHT31;53428;47.686;16.584;2022-08-02T09:44:58;24.94;62.27
66576;SHT31;53428;47.686;16.584;2022-08-02T09:49:57;25.39;61.64
66576;SHT31;53428;47.686;16.584;2022-08-02T09:55:06;25.82;60.40
66576;SHT31;53428;47.686;16.584;2022-08-02T10:00:07;25.66;60.96
66576;SHT31;53428;47.686;16.584;2022-08-02T10:05:10;26.10;59.75
66576;SHT31;53428;47.686;16.584;2022-08-02T10:10:09;26.41;58.83
66576;SHT31;53428;47.686;16.584;2022-08-02T10:15:09;26.43;58.35
66576;SHT31;53428;47.686;16.584;2022-08-02T10:20:09;26.33;57.70
66576;SHT31;53428;47.686;16.584;2022-08-02T10:25:14;26.64;57.89
66576;SHT31;53428;47.686;16.584;2022-08-02T10:30:14;26.30;58.17
66576;SHT31;53428;47.686;16.584;2022-08-02T10:35:18;26.98;56.97
66576;SHT31;53428;47.686;16.584;2022-08-02T10:40:19;27.00;56.52
66576;SHT31;53428;47.686;16.584;2022-08-02T10:45:21;27.25;56.12
66576;SHT31;53428;47.686;16.584;2022-08-02T10:55:46;27.63;55.37
66576;SHT31;53428;47.686;16.584;2022-08-02T11:00:45;27.23;56.15
66576;SHT31;53428;47.686;16.584;2022-08-02T11:06:03;26.84;56.79
66576;SHT31;53428;47.686;16.584;2022-08-02T11:16:08;27.84;54.25
66576;SHT31;53428;47.686;16.584;2022-08-02T11:21:33;29.61;50.48
66576;SHT31;53428;47.686;16.584;2022-08-02T11:31:39;29.05;50.44
66576;SHT31;53428;47.686;16.584;2022-08-02T11:36:42;31.45;44.23
66576;SHT31;53428;47.686;16.584;2022-08-02T11:41:57;30.59;46.38
66576;SHT31;53428;47.686;16.584;2022-08-02T11:47:01;28.06;52.69
66576;SHT31;53428;47.686;16.584;2022-08-02T11:52:03;27.78;53.18
66576;SHT31;53428;47.686;16.584;2022-08-02T12:02:08;30.72;46.62
66576;SHT31;53428;47.686;16.584;2022-08-02T12:07:11;33.01;42.36
66576;SHT31;53428;47.686;16.584;2022-08-02T12:12:10;31.67;45.05
66576;SHT31;53428;47.686;16.584;2022-08-02T12:17:10;31.95;44.79
66576;SHT31;53428;47.686;16.584;2022-08-02T12:22:27;33.21;41.88
66576;SHT31;53428;47.686;16.584;2022-08-02T12:27:34;35.44;38.63
66576;SHT31;53428;47.686;16.584;2022-08-02T12:32:35;35.09;38.98
66576;SHT31;53428;47.686;16.584;2022-08-02T12:37:35;30.01;46.88
66576;SHT31;53428;47.686;16.584;2022-08-02T12:42:46;31.38;45.25
66576;SHT31;53428;47.686;16.584;2022-08-02T12:47:51;31.98;43.06
66576;SHT31;53428;47.686;16.584;2022-08-02T12:53:10;30.10;46.61
66576;SHT31;53428;47.686;16.584;2022-08-02T12:58:10;29.90;47.17
66576;SHT31;53428;47.686;16.584;2022-08-02T13:03:12;29.29;48.71
66576;SHT31;53428;47.686;16.584;2022-08-02T13:08:11;28.86;49.04
66576;SHT31;53428;47.686;16.584;2022-08-02T13:13:11;31.41;42.72
66576;SHT31;53428;47.686;16.584;2022-08-02T13:18:13;33.68;40.08
66576;SHT31;53428;47.686;16.584;2022-08-02T13:23:12;32.95;41.14
66576;SHT31;53428;47.686;16.584;2022-08-02T13:28:12;31.77;43.59
66576;SHT31;53428;47.686;16.584;2022-08-02T13:33:11;29.87;47.56
66576;SHT31;53428;47.686;16.584;2022-08-02T13:38:11;30.44;47.31
66576;SHT31;53428;47.686;16.584;2022-08-02T13:43:10;29.51;49.13
66576;SHT31;53428;47.686;16.584;2022-08-02T13:48:09;29.34;49.82
66576;SHT31;53428;47.686;16.584;2022-08-02T13:53:09;28.74;51.48
66576;SHT31;53428;47.686;16.584;2022-08-02T13:58:08;28.61;51.36
66576;SHT31;53428;47.686;16.584;2022-08-02T14:03:08;28.35;52.05
66576;SHT31;53428;47.686;16.584;2022-08-02T14:08:07;28.66;52.05
66576;SHT31;53428;47.686;16.584;2022-08-02T14:13:07;31.72;45.85
66576;SHT31;53428;47.686;16.584;2022-08-02T14:18:06;33.52;41.87
66576;SHT31;53428;47.686;16.584;2022-08-02T14:23:06;34.65;39.42
66576;SHT31;53428;47.686;16.584;2022-08-02T14:28:05;35.25;38.77
66576;SHT31;53428;47.686;16.584;2022-08-02T14:33:05;35.40;36.84
66576;SHT31;53428;47.686;16.584;2022-08-02T14:38:05;33.32;39.46
66576;SHT31;53428;47.686;16.584;2022-08-02T14:43:04;32.73;40.22
66576;SHT31;53428;47.686;16.584;2022-08-02T14:48:04;30.69;44.23
66576;SHT31;53428;47.686;16.584;2022-08-02T14:53:03;34.94;37.00
66576;SHT31;53428;47.686;16.584;2022-08-02T14:58:02;31.71;41.97
66576;SHT31;53428;47.686;16.584;2022-08-02T15:03:02;34.68;37.07
66576;SHT31;53428;47.686;16.584;2022-08-02T15:08:01;31.77;41.87
66576;SHT31;53428;47.686;16.584;2022-08-02T15:13:00;34.07;38.50
66576;SHT31;53428;47.686;16.584;2022-08-02T15:18:00;34.13;37.69
66576;SHT31;53428;47.686;16.584;2022-08-02T15:22:59;34.13;37.48
66576;SHT31;53428;47.686;16.584;2022-08-02T15:28:03;33.43;38.88
66576;SHT31;53428;47.686;16.584;2022-08-02T15:33:07;35.78;36.07
66576;SHT31;53428;47.686;16.584;2022-08-02T15:38:06;32.06;40.47
66576;SHT31;53428;47.686;16.584;2022-08-02T15:43:06;31.55;40.95
66576;SHT31;53428;47.686;16.584;2022-08-02T15:48:05;30.62;42.86
66576;SHT31;53428;47.686;16.584;2022-08-02T15:53:05;29.96;43.89
66576;SHT31;53428;47.686;16.584;2022-08-02T15:58:05;29.35;45.69
66576;SHT31;53428;47.686;16.584;2022-08-02T16:03:06;29.72;45.23
66576;SHT31;53428;47.686;16.584;2022-08-02T16:08:05;31.29;41.98
66576;SHT31;53428;47.686;16.584;2022-08-02T16:13:05;31.15;42.41
66576;SHT31;53428;47.686;16.584;2022-08-02T16:18:23;29.65;45.10
66576;SHT31;53428;47.686;16.584;2022-08-02T16:23:22;32.41;40.11
66576;SHT31;53428;47.686;16.584;2022-08-02T16:28:22;31.75;40.89
66576;SHT31;53428;47.686;16.584;2022-08-02T16:33:21;33.49;38.27
66576;SHT31;53428;47.686;16.584;2022-08-02T16:38:20;31.93;40.37
66576;SHT31;53428;47.686;16.584;2022-08-02T16:43:20;31.88;40.65
66576;SHT31;53428;47.686;16.584;2022-08-02T16:48:19;30.14;43.75
66576;SHT31;53428;47.686;16.584;2022-08-02T16:53:18;30.64;42.59
66576;SHT31;53428;47.686;16.584;2022-08-02T16:58:18;29.41;44.40
66576;SHT31;53428;47.686;16.584;2022-08-02T17:03:18;30.88;40.74
66576;SHT31;53428;47.686;16.584;2022-08-02T17:08:17;30.23;42.81
66576;SHT31;53428;47.686;16.584;2022-08-02T17:13:16;28.86;45.39
66576;SHT31;53428;47.686;16.584;2022-08-02T17:18:16;28.39;45.58
66576;SHT31;53428;47.686;16.584;2022-08-02T17:23:15;28.05;46.47
66576;SHT31;53428;47.686;16.584;2022-08-02T17:28:15;27.70;47.50
66576;SHT31;53428;47.686;16.584;2022-08-02T17:33:15;27.43;48.03
66576;SHT31;53428;47.686;16.584;2022-08-02T17:38:15;27.12;49.61
66576;SHT31;53428;47.686;16.584;2022-08-02T17:43:16;26.88;50.43
66576;SHT31;53428;47.686;16.584;2022-08-02T17:48:16;26.64;52.03
66576;SHT31;53428;47.686;16.584;2022-08-02T17:53:15;26.48;52.93
66576;SHT31;53428;47.686;16.584;2022-08-02T17:58:16;26.33;53.60
66576;SHT31;53428;47.686;16.584;2022-08-02T18:03:16;26.21;53.73
66576;SHT31;53428;47.686;16.584;2022-08-02T18:08:15;26.03;53.90
66576;SHT31;53428;47.686;16.584;2022-08-02T18:13:14;25.85;54.07
66576;SHT31;53428;47.686;16.584;2022-08-02T18:18:13;25.55;55.10
66576;SHT31;53428;47.686;16.584;2022-08-02T18:23:14;25.25;55.89
66576;SHT31;53428;47.686;16.584;2022-08-02T18:28:14;25.00;57.32
66576;SHT31;53428;47.686;16.584;2022-08-02T18:33:13;24.70;57.91
66576;SHT31;53428;47.686;16.584;2022-08-02T18:38:12;24.55;58.48
66576;SHT31;53428;47.686;16.584;2022-08-02T18:43:12;24.32;60.29
66576;SHT31;53428;47.686;16.584;2022-08-02T18:48:12;24.14;60.33
66576;SHT31;53428;47.686;16.584;2022-08-02T18:53:11;24.02;60.43
66576;SHT31;53428;47.686;16.584;2022-08-02T18:58:11;23.83;63.04
66576;SHT31;53428;47.686;16.584;2022-08-02T19:03:10;23.66;64.03
66576;SHT31;53428;47.686;16.584;2022-08-02T19:08:10;23.56;64.58
66576;SHT31;53428;47.686;16.584;2022-08-02T19:13:10;23.45;64.45
66576;SHT31;53428;47.686;16.584;2022-08-02T19:18:14;23.32;64.27
66576;SHT31;53428;47.686;16.584;2022-08-02T19:23:14;23.20;65.19
66576;SHT31;53428;47.686;16.584;2022-08-02T19:28:13;22.92;67.44
66576;SHT31;53428;47.686;16.584;2022-08-02T19:33:13;22.64;68.62
66576;SHT31;53428;47.686;16.584;2022-08-02T19:38:12;22.48;69.63
66576;SHT31;53428;47.686;16.584;2022-08-02T19:43:11;22.48;70.34
66576;SHT31;53428;47.686;16.584;2022-08-02T19:48:11;22.41;71.01
66576;SHT31;53428;47.686;16.584;2022-08-02T19:53:12;22.43;71.06
66576;SHT31;53428;47.686;16.584;2022-08-02T19:58:12;22.23;71.33
66576;SHT31;53428;47.686;16.584;2022-08-02T20:03:11;22.14;71.63
66576;SHT31;53428;47.686;16.584;2022-08-02T20:08:14;21.99;72.26
66576;SHT31;53428;47.686;16.584;2022-08-02T20:13:14;21.81;73.17
66576;SHT31;53428;47.686;16.584;2022-08-02T20:18:13;21.81;72.74
66576;SHT31;53428;47.686;16.584;2022-08-02T20:23:13;21.86;72.02
66576;SHT31;53428;47.686;16.584;2022-08-02T20:28:16;21.88;71.27
66576;SHT31;53428;47.686;16.584;2022-08-02T20:33:17;21.85;71.23
66576;SHT31;53428;47.686;16.584;2022-08-02T20:38:16;21.68;71.76
66576;SHT31;53428;47.686;16.584;2022-08-02T20:43:16;21.65;71.60
66576;SHT31;53428;47.686;16.584;2022-08-02T20:48:15;21.72;71.48
66576;SHT31;53428;47.686;16.584;2022-08-02T20:53:15;21.62;71.89
66576;SHT31;53428;47.686;16.584;2022-08-02T20:58:16;21.45;72.70
66576;SHT31;53428;47.686;16.584;2022-08-02T21:03:16;21.30;73.90
66576;SHT31;53428;47.686;16.584;2022-08-02T21:08:17;21.10;74.71
66576;SHT31;53428;47.686;16.584;2022-08-02T21:13:19;20.72;76.04
66576;SHT31;53428;47.686;16.584;2022-08-02T21:18:19;20.47;76.80
66576;SHT31;53428;47.686;16.584;2022-08-02T21:23:18;20.49;76.62
66576;SHT31;53428;47.686;16.584;2022-08-02T21:28:18;20.59;76.09
66576;SHT31;53428;47.686;16.584;2022-08-02T21:33:17;20.49;76.22
66576;SHT31;53428;47.686;16.584;2022-08-02T21:38:16;20.42;76.87
66576;SHT31;53428;47.686;16.584;2022-08-02T21:43:16;20.28;77.44
66576;SHT31;53428;47.686;16.584;2022-08-02T21:48:17;20.16;77.90
66576;SHT31;53428;47.686;16.584;2022-08-02T21:53:17;20.20;77.74
66576;SHT31;53428;47.686;16.584;2022-08-02T21:58:16;20.14;77.80
66576;SHT31;53428;47.686;16.584;2022-08-02T22:03:15;20.03;78.19
66576;SHT31;53428;47.686;16.584;2022-08-02T22:08:15;19.89;78.74
66576;SHT31;53428;47.686;16.584;2022-08-02T22:13:14;19.89;78.76
66576;SHT31;53428;47.686;16.584;2022-08-02T22:18:14;19.86;78.88
66576;SHT31;53428;47.686;16.584;2022-08-02T22:23:13;19.87;78.97
66576;SHT31;53428;47.686;16.584;2022-08-02T22:28:14;19.87;79.07
66576;SHT31;53428;47.686;16.584;2022-08-02T22:33:14;19.79;79.37
66576;SHT31;53428;47.686;16.584;2022-08-02T22:38:32;19.73;79.43
66576;SHT31;53428;47.686;16.584;2022-08-02T22:43:31;19.72;79.54
66576;SHT31;53428;47.686;16.584;2022-08-02T22:48:31;19.70;79.53
66576;SHT31;53428;47.686;16.584;2022-08-02T22:53:30;19.67;79.53
66576;SHT31;53428;47.686;16.584;2022-08-02T22:58:31;19.51;80.28
66576;SHT31;53428;47.686;16.584;2022-08-02T23:03:30;19.32;80.73
66576;SHT31;53428;47.686;16.584;2022-08-02T23:08:30;19.25;80.90
66576;SHT31;53428;47.686;16.584;2022-08-02T23:13:31;19.11;81.36
66576;SHT31;53428;47.686;16.584;2022-08-02T23:18:31;18.97;81.97
66576;SHT31;53428;47.686;16.584;2022-08-02T23:23:48;18.95;82.04
66576;SHT31;53428;47.686;16.584;2022-08-02T23:28:48;18.85;82.55
66576;SHT31;53428;47.686;16.584;2022-08-02T23:33:47;18.74;82.85
66576;SHT31;53428;47.686;16.584;2022-08-02T23:38:47;18.73;82.96
66576;SHT31;53428;47.686;16.584;2022-08-02T23:43:46;18.73;83.02
66576;SHT31;53428;47.686;16.584;2022-08-02T23:48:45;18.64;83.41
66576;SHT31;53428;47.686;16.584;2022-08-02T23:53:45;18.55;83.80
66576;SHT31;53428;47.686;16.584;2022-08-02T23:58:44;18.50;84.07
